createdAt,value
2023-01-12T06:10:35.794Z,100584.83
2023-01-12T06:13:21.939Z,100590.60
2023-01-12T06:15:49.337Z,100588.70
2023-01-12T06:20:41.971Z,100589.61
2023-01-12T06:23:09.431Z,100581.82
2023-01-12T06:25:36.886Z,100577.27
2023-01-12T06:28:06.084Z,100577.77
2023-01-12T06:30:35.642Z,100582.14
2023-01-12T06:33:03.013Z,100584.31
2023-01-12T06:35:33.130Z,100582.85
2023-01-12T06:38:03.646Z,100579.16
2023-01-12T06:40:31.331Z,100581.06
2023-01-12T06:42:59.097Z,100578.21
2023-01-12T06:45:26.056Z,100572.85
2023-01-12T06:47:53.225Z,100575.36
2023-01-12T06:50:20.589Z,100577.13
2023-01-12T06:52:48.790Z,100580.13
2023-01-12T06:55:16.151Z,100581.61
2023-01-12T06:57:43.621Z,100585.53
2023-01-12T07:00:12.807Z,100595.25
2023-01-12T07:02:40.615Z,100594.45
2023-01-12T07:05:08.620Z,100599.16
2023-01-12T07:07:39.217Z,100598.69
2023-01-12T07:10:09.857Z,100598.88
2023-01-12T07:12:37.930Z,100600.31
2023-01-12T07:15:06.486Z,100598.36
2023-01-12T07:17:33.769Z,100589.52
2023-01-12T07:20:01.583Z,100586.59
2023-01-12T07:22:29.890Z,100581.71
2023-01-12T07:24:57.924Z,100584.13
2023-01-12T07:27:25.320Z,100583.11
2023-01-12T07:29:52.809Z,100587.13
2023-01-12T07:32:20.311Z,100582.20
2023-01-12T07:34:47.878Z,100580.63
2023-01-12T07:37:15.664Z,100581.92
2023-01-12T07:39:43.183Z,100581.74
2023-01-12T07:42:23.728Z,100576.78
2023-01-12T07:44:53.136Z,100580.67
2023-01-12T07:47:20.459Z,100581.80
2023-01-12T07:49:47.857Z,100580.20
2023-01-12T07:52:15.178Z,100581.02
2023-01-12T07:54:42.795Z,100581.29
2023-01-12T07:57:11.504Z,100580.10
2023-01-12T07:59:41.619Z,100573.77
2023-01-12T12:12:20.824Z,100460.52
2023-01-12T12:15:15.822Z,100472.27
2023-01-12T12:18:30.776Z,100474.28
2023-01-12T12:21:12.587Z,100466.56
2023-01-12T12:24:01.513Z,100462.17
2023-01-12T12:26:48.345Z,100458.46
2023-01-12T12:29:30.803Z,100459.12
2023-01-12T12:32:39.636Z,100455.25
2023-01-12T12:35:32.827Z,100454.84
2023-01-12T12:38:06.150Z,100447.28
2023-01-12T12:44:41.004Z,100439.72
2023-01-12T12:47:42.684Z,100443.31
2023-01-12T12:50:46.145Z,100441.63
2023-01-12T12:53:40.248Z,100436.11
2023-01-12T12:56:16.838Z,100433.64
2023-01-12T12:59:02.188Z,100440.38
2023-01-12T13:01:29.354Z,100447.33
2023-01-12T13:04:01.230Z,100447.72
2023-01-12T13:06:44.489Z,100446.36
2023-01-12T13:09:11.549Z,100445.30
2023-01-12T13:11:54.362Z,100443.80
2023-01-12T13:14:28.501Z,100444.13
2023-01-12T13:16:59.847Z,100446.16
2023-01-12T13:19:34.755Z,100443.12
2023-01-12T13:22:41.025Z,100440.01
2023-01-12T13:25:17.393Z,100442.91
2023-01-12T13:28:00.416Z,100445.84
2023-01-12T13:30:31.367Z,100445.10
2023-01-12T13:33:16.917Z,100448.33
2023-01-12T13:35:47.185Z,100460.00
2023-01-12T13:38:28.012Z,100462.68
2023-01-12T13:41:03.539Z,100460.17
2023-01-12T13:43:33.556Z,100455.49
2023-01-12T13:46:05.398Z,100460.34
2023-01-12T13:48:34.599Z,100459.55
2023-01-12T13:51:06.544Z,100466.54
2023-01-12T13:53:33.862Z,100469.45
2023-01-12T13:56:07.789Z,100465.98
2023-01-12T13:58:42.263Z,100459.77
2023-01-12T14:01:29.731Z,100453.39
2023-01-12T14:04:19.872Z,100456.98
2023-01-12T14:07:04.004Z,100460.51
2023-01-12T14:09:49.785Z,100466.38
2023-01-12T14:12:54.407Z,100465.55
2023-01-12T14:15:56.999Z,100469.16
2023-01-12T14:18:25.581Z,100468.05
2023-01-12T14:36:30.669Z,100469.25
2023-01-12T14:38:58.867Z,100472.14
2023-01-12T14:41:46.117Z,100479.30
2023-01-12T14:44:35.475Z,100482.66
2023-01-12T14:47:02.897Z,100484.27
2023-01-12T14:49:31.619Z,100483.64
2023-01-12T14:52:17.817Z,100482.70
2023-01-12T14:54:44.815Z,100482.88
2023-01-12T14:57:24.510Z,100481.88
2023-01-12T14:59:51.558Z,100484.09
2023-01-12T15:02:32.775Z,100484.23
2023-01-12T15:05:09.290Z,100481.55
2023-01-12T15:08:04.144Z,100479.93
2023-01-12T15:10:32.666Z,100482.06
2023-01-12T15:13:25.839Z,100488.38
2023-01-12T15:16:12.301Z,100484.51
2023-01-12T15:18:58.452Z,100478.32
2023-01-12T15:21:44.256Z,100474.14
2023-01-12T15:24:49.574Z,100467.23
2023-01-12T15:27:18.432Z,100468.84
2023-01-12T15:29:45.941Z,100471.57
2023-01-12T15:32:19.327Z,100471.79
2023-01-12T15:34:46.772Z,100474.91
2023-01-12T15:37:15.402Z,100478.79
2023-01-12T15:39:42.556Z,100480.00
2023-01-12T15:42:23.094Z,100475.84
2023-01-12T15:44:51.627Z,100482.44
2023-01-12T15:47:19.213Z,100484.30
2023-01-12T15:49:48.775Z,100482.19
2023-01-12T15:52:23.652Z,100479.71
2023-01-12T15:54:50.844Z,100475.95
2023-01-12T21:59:31.421Z,100428.11
2023-01-12T22:01:58.686Z,100430.55
2023-01-12T22:04:25.872Z,100425.27
2023-01-12T22:06:53.095Z,100416.23
2023-01-12T22:09:20.173Z,100409.45
2023-01-12T22:11:47.400Z,100406.04
2023-01-12T22:14:14.505Z,100406.70
2023-01-12T22:16:41.581Z,100407.86
2023-01-12T22:19:08.704Z,100397.67
2023-01-12T22:21:35.753Z,100392.37
2023-01-12T22:24:03.855Z,100389.75
2023-01-12T22:26:32.824Z,100391.48
2023-01-12T22:28:59.952Z,100389.94
2023-01-12T22:31:27.146Z,100388.79
2023-01-12T22:34:02.802Z,100391.21
2023-01-12T22:36:31.804Z,100389.88
2023-01-12T22:39:00.545Z,100389.54
2023-01-12T22:41:27.588Z,100392.60
2023-01-12T22:43:55.224Z,100390.64
2023-01-12T22:46:22.945Z,100387.42
2023-01-12T22:48:50.968Z,100391.40
2023-01-12T22:51:18.762Z,100391.90
2023-01-12T22:53:45.711Z,100388.39
2023-01-12T22:56:13.037Z,100393.27
2023-01-12T22:58:40.497Z,100391.95
2023-01-12T23:01:08.889Z,100387.20
2023-01-12T23:03:36.752Z,100388.97
2023-01-12T23:06:04.270Z,100390.66
2023-01-12T23:08:31.325Z,100391.84
2023-01-12T23:11:05.940Z,100393.95
2023-01-12T23:13:33.582Z,100397.42
2023-01-12T23:16:02.400Z,100400.49
2023-01-12T23:18:30.137Z,100398.38
2023-01-12T23:21:01.712Z,100395.80
2023-01-12T23:23:30.857Z,100395.56
2023-01-12T23:26:18.037Z,100393.70
2023-01-12T23:28:47.534Z,100391.73
2023-01-12T23:31:16.608Z,100379.05
2023-01-12T23:33:43.865Z,100376.02
2023-01-12T23:36:13.786Z,100370.15
2023-01-12T23:38:41.023Z,100369.72
2023-01-12T23:41:18.923Z,100373.55
2023-01-12T23:43:50.458Z,100374.55
2023-01-12T23:46:20.328Z,100373.34
2023-01-12T23:48:47.512Z,100372.11
2023-01-12T23:51:15.807Z,100374.29
2023-01-12T23:53:43.110Z,100374.95
2023-01-12T23:56:11.877Z,100373.66
2023-01-12T23:58:39.028Z,100372.38
